createdAt,value
2018-07-31T00:01:13.455Z,25.84
2018-07-31T00:04:37.882Z,25.86
2018-07-31T00:08:02.281Z,25.88
2018-07-31T00:11:26.743Z,25.79
2018-07-31T00:14:51.159Z,25.78
2018-07-31T00:18:15.571Z,25.80
2018-07-31T00:21:40.117Z,25.67
2018-07-31T00:25:04.606Z,25.75
2018-07-31T00:28:29.079Z,25.62
2018-07-31T00:31:53.496Z,25.42
2018-07-31T00:35:17.909Z,25.47
2018-07-31T00:38:42.330Z,25.54
2018-07-31T00:42:06.806Z,25.43
2018-07-31T00:45:31.253Z,25.47
2018-07-31T00:48:55.666Z,25.45
2018-07-31T00:52:20.155Z,25.42
2018-07-31T00:55:44.686Z,25.25
2018-07-31T00:59:09.269Z,25.15
2018-07-31T01:02:33.910Z,25.06
2018-07-31T01:05:58.340Z,25.09
2018-07-31T01:09:22.986Z,25.07
2018-07-31T01:12:47.658Z,25.01
2018-07-31T01:16:12.171Z,25.09
2018-07-31T01:19:36.622Z,25.09
2018-07-31T01:23:01.163Z,25.06
2018-07-31T01:26:25.729Z,25.07
2018-07-31T01:29:50.353Z,24.97
2018-07-31T01:33:14.870Z,25.12
2018-07-31T01:36:39.441Z,24.81
2018-07-31T01:40:04.034Z,24.86
2018-07-31T01:43:28.578Z,24.93
2018-07-31T01:46:53.121Z,25.00
2018-07-31T01:50:18.101Z,25.12
2018-07-31T01:53:42.557Z,25.06
2018-07-31T01:57:06.981Z,24.99
2018-07-31T02:00:31.538Z,24.90
2018-07-31T02:03:56.124Z,24.86
2018-07-31T02:07:20.627Z,24.93
2018-07-31T02:10:47.951Z,25.03
2018-07-31T02:14:12.358Z,24.91
2018-07-31T02:17:36.792Z,25.03
2018-07-31T02:21:01.210Z,24.86
2018-07-31T02:24:25.652Z,24.93
2018-07-31T02:27:50.088Z,24.89
2018-07-31T02:31:14.591Z,24.77
2018-07-31T02:34:39.008Z,24.85
2018-07-31T02:38:03.505Z,24.76
2018-07-31T02:41:27.934Z,24.73
2018-07-31T02:44:52.592Z,24.67
2018-07-31T02:48:17.011Z,24.53
2018-07-31T02:51:41.456Z,24.49
2018-07-31T02:55:06.861Z,24.39
2018-07-31T02:58:31.293Z,24.40
2018-07-31T03:01:55.739Z,24.35
2018-07-31T03:05:20.149Z,24.13
2018-07-31T03:08:44.589Z,24.09
2018-07-31T03:12:09.031Z,24.01
2018-07-31T03:15:33.477Z,24.06
2018-07-31T03:18:57.906Z,24.06
2018-07-31T03:22:22.342Z,24.10
2018-07-31T03:25:46.875Z,24.03
2018-07-31T03:29:11.416Z,24.01
2018-07-31T03:32:36.086Z,23.97
2018-07-31T03:36:00.575Z,23.93
2018-07-31T03:39:25.048Z,23.87
2018-07-31T03:42:49.513Z,23.80
2018-07-31T03:46:14.096Z,23.76
2018-07-31T03:49:38.573Z,23.83
2018-07-31T03:53:03.189Z,23.75
2018-07-31T03:56:27.743Z,23.70
2018-07-31T03:59:52.339Z,23.68
2018-07-31T04:03:16.855Z,23.55
2018-07-31T04:06:41.389Z,23.67
2018-07-31T04:10:06.144Z,23.63
2018-07-31T04:13:30.655Z,23.70
2018-07-31T04:16:55.231Z,23.68
2018-07-31T04:20:19.743Z,23.72
2018-07-31T04:23:44.302Z,23.66
2018-07-31T04:27:08.835Z,23.69
2018-07-31T04:30:33.279Z,23.72
2018-07-31T04:33:57.795Z,23.66
2018-07-31T04:37:22.444Z,23.63
2018-07-31T04:40:46.934Z,23.71
2018-07-31T04:44:11.425Z,23.74
2018-07-31T04:47:36.171Z,23.69
2018-07-31T04:51:00.678Z,23.82
2018-07-31T04:54:25.184Z,23.90
2018-07-31T04:57:49.739Z,23.94
2018-07-31T05:01:14.297Z,23.98
2018-07-31T05:04:38.775Z,24.11
2018-07-31T05:08:03.240Z,24.20
2018-07-31T05:11:27.717Z,24.21
2018-07-31T05:14:52.236Z,24.25
2018-07-31T05:18:17.487Z,24.36
2018-07-31T05:21:41.953Z,24.49
2018-07-31T05:25:06.834Z,24.59
2018-07-31T05:28:31.343Z,24.71
2018-07-31T05:31:55.856Z,24.90
2018-07-31T05:35:20.393Z,25.06
2018-07-31T05:38:44.983Z,25.27
2018-07-31T05:42:09.449Z,25.33
2018-07-31T05:45:34.007Z,25.38
2018-07-31T05:48:58.572Z,25.57
2018-07-31T05:52:23.850Z,25.63
2018-07-31T05:55:48.396Z,25.69
2018-07-31T05:59:12.941Z,25.98
2018-07-31T06:02:37.480Z,26.10
2018-07-31T06:06:01.952Z,26.29
2018-07-31T06:09:26.578Z,26.43
2018-07-31T06:12:51.057Z,26.48
2018-07-31T06:16:15.571Z,26.52
2018-07-31T06:19:40.203Z,26.70
2018-07-31T06:23:04.680Z,26.93
2018-07-31T06:26:29.298Z,27.10
2018-07-31T06:29:53.835Z,27.19
2018-07-31T06:33:18.384Z,26.89
2018-07-31T06:36:42.944Z,27.10
2018-07-31T06:40:07.815Z,27.15
2018-07-31T06:43:32.373Z,27.39
2018-07-31T06:46:56.857Z,27.30
2018-07-31T06:50:21.379Z,27.18
2018-07-31T06:53:50.765Z,27.05
2018-07-31T06:57:15.191Z,27.39
2018-07-31T07:00:39.649Z,27.61
2018-07-31T07:04:04.111Z,27.82
2018-07-31T07:07:28.738Z,27.58
2018-07-31T07:10:53.188Z,27.62
2018-07-31T07:14:17.661Z,27.80
2018-07-31T07:17:42.181Z,27.88
2018-07-31T07:21:07.045Z,28.25
2018-07-31T07:24:31.540Z,28.47
2018-07-31T07:27:56.048Z,28.55
2018-07-31T07:31:20.537Z,28.75
2018-07-31T07:34:45.069Z,28.81
2018-07-31T07:38:09.511Z,28.81
2018-07-31T07:41:34.062Z,28.53
2018-07-31T07:44:58.212Z,28.76
2018-07-31T07:48:22.629Z,28.66
2018-07-31T07:51:47.145Z,28.30
2018-07-31T07:55:11.664Z,28.84
2018-07-31T07:58:36.132Z,28.48
2018-07-31T08:02:00.555Z,28.49
2018-07-31T08:05:24.989Z,28.43
2018-07-31T08:08:49.471Z,28.79
2018-07-31T08:12:13.888Z,28.70
2018-07-31T08:15:38.339Z,28.75
2018-07-31T08:19:02.785Z,29.16
2018-07-31T08:22:27.238Z,29.06
2018-07-31T08:26:07.360Z,29.40
2018-07-31T08:29:31.762Z,29.78
2018-07-31T08:32:56.197Z,29.69
2018-07-31T08:36:20.640Z,29.46
2018-07-31T08:39:45.033Z,29.86
2018-07-31T08:43:09.470Z,29.91
2018-07-31T08:46:34.016Z,30.38
2018-07-31T08:49:58.535Z,30.71
2018-07-31T08:53:23.105Z,30.17
2018-07-31T08:56:47.645Z,30.72
2018-07-31T09:00:12.198Z,31.03
2018-07-31T09:03:36.722Z,31.13
2018-07-31T09:07:01.207Z,31.49
2018-07-31T09:10:25.693Z,31.63
2018-07-31T09:13:50.191Z,31.73
2018-07-31T09:17:14.674Z,31.47
2018-07-31T09:20:39.282Z,32.01
2018-07-31T09:24:03.895Z,31.61
2018-07-31T09:27:28.578Z,32.09
2018-07-31T09:30:58.242Z,32.13
2018-07-31T09:34:22.698Z,32.05
2018-07-31T09:37:47.142Z,32.02
2018-07-31T09:41:11.568Z,32.45
2018-07-31T09:44:36.002Z,32.40
2018-07-31T09:48:00.499Z,32.29
2018-07-31T09:51:24.923Z,32.65
2018-07-31T09:54:49.440Z,32.55
2018-07-31T09:58:13.858Z,32.42
2018-07-31T10:01:38.278Z,32.45
2018-07-31T10:05:02.773Z,32.55
2018-07-31T10:08:27.161Z,32.10
2018-07-31T10:11:51.594Z,31.82
2018-07-31T10:15:16.032Z,32.80
2018-07-31T10:18:40.460Z,32.79
2018-07-31T10:22:04.863Z,32.54
2018-07-31T10:25:29.289Z,31.91
2018-07-31T10:28:53.730Z,31.61
2018-07-31T10:32:18.140Z,32.05
2018-07-31T10:35:42.539Z,32.69
2018-07-31T10:39:09.062Z,32.33
2018-07-31T10:42:33.572Z,32.55
2018-07-31T10:45:58.201Z,32.34
2018-07-31T10:49:22.977Z,32.14
2018-07-31T10:52:47.517Z,32.87
2018-07-31T10:56:12.255Z,32.91
2018-07-31T10:59:36.917Z,33.01
2018-07-31T11:03:01.509Z,33.51
2018-07-31T11:06:25.957Z,33.62
2018-07-31T11:09:50.478Z,34.47
2018-07-31T11:13:14.986Z,35.02
2018-07-31T11:16:39.519Z,35.04
2018-07-31T11:20:04.077Z,33.62
2018-07-31T11:23:28.602Z,33.75
2018-07-31T11:26:53.161Z,33.62
2018-07-31T11:30:17.622Z,34.26
2018-07-31T11:33:42.070Z,34.91
2018-07-31T11:37:06.530Z,34.13
2018-07-31T11:40:31.007Z,33.85
2018-07-31T11:43:55.450Z,33.48
2018-07-31T11:47:19.911Z,33.96
2018-07-31T11:50:44.341Z,34.00
2018-07-31T11:54:08.786Z,33.36
2018-07-31T11:57:33.220Z,33.76
2018-07-31T12:00:57.408Z,34.70
2018-07-31T12:04:21.844Z,35.30
2018-07-31T12:07:46.254Z,35.41
2018-07-31T12:11:10.830Z,34.94
2018-07-31T12:14:35.292Z,35.02
2018-07-31T12:17:59.731Z,35.10
2018-07-31T12:21:24.179Z,35.14
2018-07-31T12:24:48.824Z,35.42
2018-07-31T12:28:13.260Z,34.90
2018-07-31T12:31:37.699Z,35.50
2018-07-31T12:35:02.100Z,36.04
2018-07-31T12:38:26.651Z,36.49
2018-07-31T12:41:51.102Z,36.05
2018-07-31T12:45:15.547Z,36.84
2018-07-31T12:48:40.157Z,37.89
2018-07-31T12:52:04.798Z,38.97
2018-07-31T12:55:29.375Z,38.99
2018-07-31T12:58:53.961Z,39.76
2018-07-31T13:02:18.550Z,41.23
2018-07-31T13:05:43.150Z,42.69
2018-07-31T13:09:08.958Z,43.08
2018-07-31T13:12:33.506Z,44.11
2018-07-31T13:15:57.952Z,44.16
2018-07-31T13:19:29.003Z,42.43
2018-07-31T13:22:53.751Z,42.63
2018-07-31T13:26:18.277Z,42.71
2018-07-31T13:29:42.779Z,42.89
2018-07-31T13:33:07.512Z,44.14
2018-07-31T13:36:32.044Z,44.74
2018-07-31T13:39:56.621Z,45.45
2018-07-31T13:43:21.101Z,45.54
2018-07-31T13:46:45.657Z,46.38
2018-07-31T13:50:10.447Z,47.57
2018-07-31T13:53:34.945Z,46.46
2018-07-31T13:56:59.596Z,46.42
2018-07-31T14:00:24.287Z,45.95
2018-07-31T14:03:48.705Z,44.46
2018-07-31T14:07:13.262Z,46.35
2018-07-31T14:10:37.882Z,46.51
2018-07-31T14:14:02.451Z,45.35
2018-07-31T14:17:26.902Z,45.14
2018-07-31T14:20:51.400Z,45.75
2018-07-31T14:24:15.958Z,45.19
2018-07-31T14:27:40.903Z,45.47
2018-07-31T14:31:05.424Z,45.40
2018-07-31T14:34:29.966Z,46.06
2018-07-31T14:37:54.444Z,45.92
2018-07-31T14:41:18.934Z,46.98
2018-07-31T14:44:43.422Z,47.23
2018-07-31T14:48:08.028Z,47.31
2018-07-31T14:51:32.572Z,46.60
2018-07-31T14:54:57.091Z,46.82
2018-07-31T14:58:21.614Z,45.22
2018-07-31T15:01:46.244Z,45.31
2018-07-31T15:05:10.804Z,45.91
2018-07-31T15:08:38.675Z,46.03
2018-07-31T15:12:03.102Z,45.61
2018-07-31T15:15:27.548Z,46.60
2018-07-31T15:18:52.228Z,46.70
2018-07-31T15:22:16.638Z,47.78
2018-07-31T15:25:41.084Z,47.97
2018-07-31T15:29:05.524Z,46.73
2018-07-31T15:32:29.964Z,44.57
2018-07-31T15:35:55.059Z,45.29
2018-07-31T15:39:19.474Z,47.68
2018-07-31T15:42:43.890Z,48.25
2018-07-31T15:46:08.381Z,48.33
2018-07-31T15:49:32.783Z,48.49
2018-07-31T15:52:57.522Z,47.65
2018-07-31T15:56:22.009Z,46.91
2018-07-31T15:59:46.441Z,48.03
2018-07-31T16:27:11.418Z,46.99
2018-07-31T16:30:35.851Z,46.95
2018-07-31T16:34:00.365Z,45.86
2018-07-31T16:37:24.741Z,43.98
2018-07-31T16:40:49.246Z,43.43
2018-07-31T16:44:13.733Z,43.10
2018-07-31T16:47:38.256Z,42.76
2018-07-31T16:51:02.712Z,40.36
2018-07-31T16:54:27.167Z,41.21
2018-07-31T16:57:51.782Z,42.62
2018-07-31T17:01:16.252Z,41.67
2018-07-31T17:04:40.663Z,42.01
2018-07-31T17:08:05.087Z,41.68
2018-07-31T17:11:30.039Z,40.13
2018-07-31T17:14:54.453Z,38.60
2018-07-31T17:18:18.882Z,37.94
2018-07-31T17:21:43.303Z,37.27
2018-07-31T17:25:07.825Z,37.30
2018-07-31T17:28:32.334Z,36.44
2018-07-31T17:31:56.892Z,36.17
2018-07-31T17:35:21.339Z,35.32
2018-07-31T17:38:45.763Z,35.28
2018-07-31T17:42:10.267Z,35.20
2018-07-31T17:45:34.834Z,34.88
2018-07-31T17:48:59.331Z,34.39
2018-07-31T17:52:23.888Z,34.25
2018-07-31T17:55:48.386Z,33.92
2018-07-31T17:59:12.861Z,33.71
2018-07-31T18:02:37.398Z,33.58
2018-07-31T18:06:02.251Z,33.36
2018-07-31T18:09:26.774Z,33.27
2018-07-31T18:12:51.258Z,32.69
2018-07-31T18:16:15.771Z,32.75
2018-07-31T18:19:40.355Z,32.55
2018-07-31T18:23:05.033Z,32.19
2018-07-31T18:26:29.519Z,31.78
2018-07-31T18:29:54.324Z,31.94
2018-07-31T18:33:18.816Z,31.73
2018-07-31T18:36:43.294Z,31.61
2018-07-31T18:40:08.289Z,31.41
2018-07-31T18:43:32.900Z,30.92
2018-07-31T18:46:57.387Z,30.87
2018-07-31T18:50:21.982Z,30.79
2018-07-31T18:53:46.483Z,30.77
2018-07-31T18:57:11.009Z,30.59
2018-07-31T19:00:35.505Z,30.39
2018-07-31T19:03:59.993Z,30.04
2018-07-31T19:07:25.123Z,29.48
2018-07-31T19:10:50.289Z,29.60
2018-07-31T19:14:15.495Z,29.32
2018-07-31T19:17:40.476Z,29.08
2018-07-31T19:21:05.497Z,28.95
2018-07-31T19:24:31.182Z,29.06
2018-07-31T19:27:55.692Z,28.64
2018-07-31T19:31:20.407Z,28.77
2018-07-31T19:34:45.413Z,28.64
2018-07-31T19:38:10.508Z,28.67
2018-07-31T19:41:35.515Z,28.35
2018-07-31T19:45:00.559Z,28.24
2018-07-31T19:48:25.523Z,28.16
2018-07-31T19:51:50.667Z,28.25
2018-07-31T19:55:15.851Z,27.93
2018-07-31T19:58:40.650Z,28.23
2018-07-31T20:02:05.201Z,28.04
2018-07-31T20:05:29.673Z,27.94
2018-07-31T20:08:54.172Z,28.07
2018-07-31T20:12:18.802Z,28.01
2018-07-31T20:15:43.345Z,27.88
2018-07-31T20:19:07.833Z,27.62
2018-07-31T20:22:33.176Z,27.88
2018-07-31T20:25:57.683Z,27.89
2018-07-31T20:29:22.409Z,27.90
2018-07-31T20:32:46.910Z,27.88
2018-07-31T20:36:11.450Z,27.89
2018-07-31T20:39:36.508Z,27.76
2018-07-31T20:43:00.927Z,27.55
2018-07-31T20:46:25.120Z,27.49
2018-07-31T20:49:49.678Z,27.45
2018-07-31T20:53:14.539Z,27.48
2018-07-31T20:56:38.980Z,27.29
2018-07-31T21:00:03.490Z,27.30
2018-07-31T21:03:28.002Z,27.11
2018-07-31T21:06:52.270Z,27.16
2018-07-31T21:10:16.681Z,26.91
2018-07-31T21:13:41.113Z,27.02
2018-07-31T21:17:05.547Z,26.97
2018-07-31T21:20:29.974Z,26.90
2018-07-31T21:23:54.364Z,26.63
2018-07-31T21:27:18.861Z,26.80
2018-07-31T21:30:43.308Z,26.62
2018-07-31T21:34:07.788Z,26.64
2018-07-31T21:37:38.005Z,26.46
2018-07-31T21:41:02.439Z,26.27
2018-07-31T21:44:26.966Z,26.29
2018-07-31T21:47:51.415Z,26.14
2018-07-31T21:51:16.314Z,26.01
2018-07-31T21:54:40.741Z,25.93
2018-07-31T21:58:05.425Z,25.84
2018-07-31T22:01:29.868Z,26.00
2018-07-31T22:04:54.600Z,25.82
2018-07-31T22:08:19.244Z,25.82
2018-07-31T22:11:43.788Z,25.70
2018-07-31T22:15:08.478Z,25.83
2018-07-31T22:18:32.989Z,25.78
2018-07-31T22:21:57.605Z,25.63
2018-07-31T22:25:22.128Z,25.70
2018-07-31T22:28:46.592Z,25.78
2018-07-31T22:32:11.152Z,25.73
2018-07-31T22:35:35.777Z,25.63
2018-07-31T22:39:01.061Z,25.65
2018-07-31T22:46:57.698Z,25.61
2018-07-31T22:50:22.569Z,25.60
2018-07-31T22:53:47.117Z,25.57
2018-07-31T22:57:11.575Z,25.25
2018-07-31T23:00:36.015Z,25.54
2018-07-31T23:04:00.525Z,25.61
2018-07-31T23:07:24.992Z,25.57
2018-07-31T23:10:49.412Z,25.48
2018-07-31T23:14:13.884Z,25.37
2018-07-31T23:17:38.248Z,25.48
2018-07-31T23:21:02.806Z,25.40
2018-07-31T23:24:27.276Z,25.39
2018-07-31T23:27:51.418Z,25.28
2018-07-31T23:31:16.063Z,25.21
2018-07-31T23:34:40.476Z,25.22
2018-07-31T23:38:04.993Z,25.21
2018-07-31T23:41:29.466Z,25.15
2018-07-31T23:44:54.658Z,25.16
2018-07-31T23:48:19.095Z,24.97
2018-07-31T23:51:43.532Z,24.99
2018-07-31T23:55:08.019Z,24.92
2018-07-31T23:58:32.479Z,24.92
